Impacts TAF Board INFO
FOR SITUATIONAL AWARENESS. NOT TO BE USED FOR FLIGHT PLANNING PURPOSES.
IDs:

KIAD - Washington/Dulles In, VA, US

Issued at 0521 UTC 23 Sep 2017
Updated at 0716 UTC 23 Sep 2017
Potential Impact None Slight Moderate High
Time0652Z 23/08Z 23/09Z 23/10Z 23/11Z 23/12Z 23/13Z 23/14Z 23/15Z 23/16Z 23/17Z 23/18Z 23/19Z 23/20Z>>
Type OBS PRVL PRVL PRVL PRVL PRVL PRVL PRVL PRVL PRVL PRVL PRVL PRVL PRVL
VIS 10 5 5 >6 >6 >6 >6 >6 >6 >6 >6 >6 >6 >6
CIG 250 -- -- -- -- -- -- -- -- -- -- -- -- --
Cover BKN SCT SCT SCT SCT SCT SCT SCT SCT SCT SCT SCT SCT SCT
FltCat VFR MVFR MVFR VFR VFR VFR VFR VFR VFR VFR VFR VFR VFR VFR
WX -- BR BR -- -- -- -- -- -- -- -- -- -- --
WDir 290 VRB VRB VRB VRB VRB VRB VRB VRB VRB VRB VRB VRB VRB
WSpd 3 3 3 3 3 3 3 3 3 3 3 3 3 3
WGst -- -- -- -- -- -- -- -- -- -- -- -- -- --

Raw TAF
KIAD 230521Z 2306/2412 VRB03KT P6SM SCT250
  FM230700 VRB03KT 5SM BR SCT200
  FM231000 VRB03KT P6SM SCT250


Raw METAR
KIAD 230652Z 29003KT 10SM BKN250 16/16 A3004 RMK AO2 SLP169 T01610161
KIAD 230552Z 00000KT 7SM BKN250 16/16 A3004 RMK AO2 SLP171 T01610161 10222 20161 52002
KIAD 230452Z 33003KT 10SM FEW180 SCT250 17/17 A3004 RMK AO2 SLP170 T01720172 402830161

METAR Board
Radar Display
Forecast Discussion

FOR SITUATIONAL AWARENESS. NOT TO BE USED FOR FLIGHT PLANNING PURPOSES.